Terminal Aerodrome Forecast
Issued by NWS Spokane, WA

Home | Current Version | Previous Version | Text Only | Print | Product List | Glossary On
Versions: 1 2 3 4 5 6 7 8 9 10 11 12 13
000
FTUS46 KOTX 010521
TAFEAT
TAF
KEAT 010521Z 0106/0206 12006KT P6SM BKN200
     FM010800 30007KT P6SM SCT140 BKN180
     FM012100 29014G22KT P6SM FEW080 SCT150 BKN200
     FM020300 30011KT P6SM SCT120 BKN180=

USA.gov is the U.S. government's official web portal to all federal, state and local government web resources and services.